East Rupert, Vermont
Current Conditions -  °F | °C
As of 12:35 PM on Saturday 25 Oct 2014 (Local Time) from KRUT Reporting Station
Scattered Clouds Scattered Clouds  
Wind Chill: 54°   Ceiling: Unl
Heat Index: 54°   Visibility: 10mi
Dew Point: 39°   Wind: 5mph
Humidity: 58%   Direction: 220°SW
Pressure: 29.7"   Gusts: NA
Location:  43.358°N, 73.1349°W
Report Text: KRUT 251635Z 22004KT 10SM SCT043 12/04 A2970 RMK AO1
Loading
Personal Weather Stations






























Interactive Weather Map
Tropical Storm Tracking
New forecast layout! Learn more

10-Day Weather Forecast

Advertisements
Track Severe Weather on mobile